createdAt,value
2017-12-04T00:00:25.818Z,5.30
2017-12-04T00:02:59.425Z,5.30
2017-12-04T00:05:33.029Z,5.20
2017-12-04T00:08:06.625Z,5.20
2017-12-04T00:10:40.304Z,5.30
2017-12-04T00:13:14.845Z,5.30
2017-12-04T00:15:48.563Z,5.30
2017-12-04T00:18:22.274Z,5.30
2017-12-04T00:20:55.966Z,5.20
2017-12-04T00:23:29.770Z,5.30
2017-12-04T00:26:03.270Z,5.20
2017-12-04T00:28:37.589Z,5.20
2017-12-04T00:31:11.394Z,5.20
2017-12-04T00:33:44.989Z,5.20
2017-12-04T00:36:18.589Z,5.30
2017-12-04T00:38:52.609Z,5.20
2017-12-04T00:41:26.641Z,5.20
2017-12-04T00:44:00.322Z,5.20
2017-12-04T00:46:33.877Z,5.20
2017-12-04T00:49:07.837Z,5.40
2017-12-04T00:51:41.430Z,5.40
2017-12-04T00:54:14.926Z,5.30
2017-12-04T00:56:48.426Z,5.30
2017-12-04T00:59:22.714Z,5.20
2017-12-04T01:01:56.445Z,5.20
2017-12-04T01:04:29.946Z,5.20
2017-12-04T01:07:04.265Z,5.20
2017-12-04T01:09:38.477Z,5.20
2017-12-04T01:12:12.074Z,5.20
2017-12-04T01:14:45.678Z,5.20
2017-12-04T01:17:19.287Z,5.20
2017-12-04T01:19:52.878Z,5.20
2017-12-04T01:22:26.477Z,5.20
2017-12-04T01:25:00.038Z,5.30
2017-12-04T01:27:33.738Z,5.20
2017-12-04T01:30:07.613Z,5.20
2017-12-04T01:32:41.191Z,5.30
2017-12-04T01:35:15.449Z,5.30
2017-12-04T01:37:49.806Z,5.30
2017-12-04T01:40:23.373Z,5.30
2017-12-04T01:42:57.025Z,5.30
2017-12-04T01:45:30.530Z,5.30
2017-12-04T01:48:04.234Z,5.40
2017-12-04T01:50:38.037Z,5.30
2017-12-04T01:53:11.690Z,5.30
2017-12-04T01:55:45.342Z,5.30
2017-12-04T01:58:18.898Z,5.40
2017-12-04T02:00:52.652Z,5.30
2017-12-04T02:03:26.350Z,5.30
2017-12-04T02:05:59.809Z,5.30
2017-12-04T02:08:33.445Z,5.30
2017-12-04T02:11:07.118Z,5.30
2017-12-04T02:13:40.855Z,5.20
2017-12-04T02:16:14.558Z,5.20
2017-12-04T02:18:48.117Z,5.30
2017-12-04T02:21:21.654Z,5.30
2017-12-04T02:23:55.322Z,5.30
2017-12-04T02:26:28.872Z,5.40
2017-12-04T02:29:03.250Z,5.40
2017-12-04T02:31:37.694Z,5.30
2017-12-04T02:34:11.506Z,5.30
2017-12-04T02:36:45.207Z,5.40
2017-12-04T02:39:18.810Z,5.40
2017-12-04T02:41:52.354Z,5.30
2017-12-04T02:44:25.988Z,5.40
2017-12-04T02:46:59.506Z,5.30
2017-12-04T02:49:33.110Z,5.30
2017-12-04T02:52:06.670Z,5.30
2017-12-04T02:54:40.312Z,5.30
2017-12-04T02:57:13.905Z,5.40
2017-12-04T02:59:47.503Z,5.40
2017-12-04T03:02:21.121Z,5.40
2017-12-04T03:04:54.818Z,5.50
2017-12-04T03:07:28.371Z,5.40
2017-12-04T03:10:02.223Z,5.40
2017-12-04T03:12:36.786Z,5.40
2017-12-04T03:15:10.422Z,5.40
2017-12-04T03:17:44.055Z,5.40
2017-12-04T03:20:17.650Z,5.40
2017-12-04T03:22:51.254Z,5.30
2017-12-04T03:25:24.854Z,5.30
2017-12-04T03:27:59.174Z,5.40
2017-12-04T03:30:32.751Z,5.40
2017-12-04T03:33:06.369Z,5.40
2017-12-04T03:35:40.155Z,5.40
2017-12-04T03:38:13.734Z,5.30
2017-12-04T03:40:47.486Z,5.40
2017-12-04T03:43:21.193Z,5.30
2017-12-04T03:45:54.761Z,5.40
2017-12-04T03:48:29.106Z,5.30
2017-12-04T03:51:03.014Z,5.30
2017-12-04T03:53:36.569Z,5.40
2017-12-04T03:56:10.290Z,5.40
2017-12-04T03:58:43.758Z,5.40
2017-12-04T04:01:17.354Z,5.50
2017-12-04T04:03:51.018Z,5.50
2017-12-04T04:06:25.418Z,5.40
2017-12-04T04:08:59.125Z,5.40
2017-12-04T04:11:32.743Z,5.40
2017-12-04T04:14:06.306Z,5.40
2017-12-04T04:16:39.906Z,5.50
2017-12-04T04:19:14.262Z,5.50
2017-12-04T04:21:48.682Z,5.50
2017-12-04T04:24:23.094Z,5.50
2017-12-04T04:26:56.902Z,5.50
2017-12-04T04:29:30.612Z,5.50
2017-12-04T04:32:04.418Z,5.50
2017-12-04T04:34:38.119Z,5.60
2017-12-04T04:37:11.618Z,5.50
2017-12-04T04:39:45.218Z,5.50
2017-12-04T04:42:20.223Z,5.40
2017-12-04T04:44:53.922Z,5.40
2017-12-04T04:47:27.940Z,5.40
2017-12-04T04:50:02.966Z,5.40
2017-12-04T04:52:36.594Z,5.40
2017-12-04T04:55:10.258Z,5.50
2017-12-04T04:57:43.901Z,5.50
2017-12-04T05:00:17.705Z,5.50
2017-12-04T05:02:51.257Z,5.50
2017-12-04T05:05:24.814Z,5.50
2017-12-04T05:07:58.250Z,5.50
2017-12-04T05:10:31.854Z,5.50
2017-12-04T05:13:05.510Z,5.60
2017-12-04T05:15:39.105Z,5.60
2017-12-04T05:18:12.777Z,5.70
2017-12-04T05:20:46.290Z,5.60
2017-12-04T05:23:20.018Z,5.70
2017-12-04T05:25:53.693Z,5.70
2017-12-04T05:28:27.522Z,5.70
2017-12-04T05:31:01.126Z,5.70
2017-12-04T05:33:34.730Z,5.70
2017-12-04T05:36:08.266Z,5.60
2017-12-04T05:38:42.054Z,5.60
2017-12-04T05:41:15.789Z,5.60
2017-12-04T05:43:49.486Z,5.70
2017-12-04T05:46:23.002Z,5.70
2017-12-04T05:48:57.384Z,5.70
2017-12-04T05:51:30.909Z,5.70
2017-12-04T05:54:04.631Z,5.70
2017-12-04T05:56:38.565Z,5.70
2017-12-04T05:59:12.265Z,5.70
2017-12-04T06:01:45.844Z,5.60
2017-12-04T06:04:19.626Z,5.70
2017-12-04T06:06:53.183Z,5.70
2017-12-04T06:09:26.874Z,5.70
2017-12-04T06:12:00.482Z,5.70
2017-12-04T06:14:34.082Z,5.80
2017-12-04T06:17:08.460Z,5.80
2017-12-04T06:19:42.222Z,5.80
2017-12-04T06:22:16.694Z,5.80
2017-12-04T06:24:50.434Z,5.80
2017-12-04T06:27:23.977Z,5.80
2017-12-04T06:29:57.694Z,5.70
2017-12-04T06:32:31.213Z,5.70
2017-12-04T06:35:05.342Z,5.70
2017-12-04T06:37:39.041Z,5.70
2017-12-04T06:40:13.426Z,5.70
2017-12-04T06:42:47.686Z,5.70
2017-12-04T06:45:21.241Z,5.70
2017-12-04T06:47:54.829Z,5.70
2017-12-04T06:50:28.432Z,5.70
2017-12-04T06:53:02.081Z,5.80
2017-12-04T06:55:35.657Z,5.80
2017-12-04T06:58:09.285Z,5.90
2017-12-04T07:00:42.838Z,5.80
2017-12-04T07:03:16.600Z,5.80
2017-12-04T07:05:50.402Z,5.90
2017-12-04T07:08:24.709Z,5.90
2017-12-04T07:10:58.313Z,5.90
2017-12-04T07:13:31.866Z,5.90
2017-12-04T07:16:05.486Z,5.90
2017-12-04T07:18:39.114Z,5.90
2017-12-04T07:21:12.587Z,5.90
2017-12-04T07:23:46.153Z,5.90
2017-12-04T07:26:19.721Z,5.90
2017-12-04T07:28:54.182Z,6.00
2017-12-04T07:31:27.947Z,5.90
2017-12-04T07:34:01.745Z,5.90
2017-12-04T07:36:35.341Z,5.90
2017-12-04T07:39:09.305Z,5.90
2017-12-04T07:41:42.963Z,5.90
2017-12-04T07:44:16.453Z,5.90
2017-12-04T07:46:50.055Z,5.90
2017-12-04T07:49:23.663Z,5.90
2017-12-04T07:51:57.146Z,6.00
2017-12-04T07:54:31.439Z,6.00
2017-12-04T07:57:05.277Z,6.00
2017-12-04T07:59:39.566Z,6.00
2017-12-04T08:02:13.985Z,6.00
2017-12-04T08:04:47.562Z,6.00
2017-12-04T08:07:21.128Z,6.00
2017-12-04T08:09:54.709Z,6.00
2017-12-04T08:12:29.022Z,6.00
2017-12-04T08:15:02.651Z,6.00
2017-12-04T08:17:36.925Z,6.00
2017-12-04T08:20:10.530Z,5.90
2017-12-04T08:22:44.129Z,5.90
2017-12-04T08:25:17.630Z,6.00
2017-12-04T08:27:51.234Z,6.00
2017-12-04T08:30:24.814Z,6.00
2017-12-04T08:32:58.283Z,6.00
2017-12-04T08:35:31.831Z,6.00
2017-12-04T08:38:05.457Z,5.90
2017-12-04T08:40:39.007Z,6.00
2017-12-04T08:43:12.771Z,6.00
2017-12-04T08:45:46.362Z,6.00
2017-12-04T08:48:20.062Z,6.10
2017-12-04T08:50:53.672Z,6.00
2017-12-04T08:53:27.134Z,6.10
2017-12-04T08:56:00.717Z,6.00
2017-12-04T08:58:35.280Z,6.00
2017-12-04T09:01:08.881Z,6.00
2017-12-04T09:03:42.498Z,6.10
2017-12-04T09:06:16.194Z,6.10
2017-12-04T09:08:49.634Z,6.10
2017-12-04T09:11:23.165Z,6.10
2017-12-04T09:13:56.746Z,6.10
2017-12-04T09:16:30.386Z,6.10
2017-12-04T09:19:03.897Z,6.10
2017-12-04T09:21:38.002Z,6.20
2017-12-04T09:24:11.598Z,6.20
2017-12-04T09:26:45.162Z,6.20
2017-12-04T09:29:18.757Z,6.20
2017-12-04T09:31:52.305Z,6.20
2017-12-04T09:34:25.907Z,6.20
2017-12-04T09:36:59.502Z,6.20
2017-12-04T09:39:33.786Z,6.20
2017-12-04T09:42:07.381Z,6.20
2017-12-04T09:44:40.988Z,6.20
2017-12-04T09:47:14.522Z,6.20
2017-12-04T09:49:48.085Z,6.20
2017-12-04T09:52:21.623Z,6.20
2017-12-04T09:54:55.166Z,6.20
2017-12-04T09:57:28.677Z,6.30
2017-12-04T10:00:02.317Z,6.30
2017-12-04T10:02:35.828Z,6.30
2017-12-04T10:05:09.506Z,6.30
2017-12-04T10:07:43.066Z,6.30
2017-12-04T10:10:16.786Z,6.30
2017-12-04T10:12:50.526Z,6.30
2017-12-04T10:15:24.334Z,6.40
2017-12-04T10:17:58.650Z,6.40
2017-12-04T10:20:32.234Z,6.40
2017-12-04T10:23:05.810Z,6.40
2017-12-04T10:25:39.464Z,6.40
2017-12-04T10:28:13.062Z,6.40
2017-12-04T10:30:46.868Z,6.40
2017-12-04T10:33:21.181Z,6.30
2017-12-04T10:35:55.655Z,6.30
2017-12-04T10:38:29.517Z,6.30
2017-12-04T10:41:03.105Z,6.40
2017-12-04T10:43:36.909Z,6.40
2017-12-04T10:46:10.367Z,6.40
2017-12-04T10:48:43.964Z,6.40
2017-12-04T10:51:17.515Z,6.40
2017-12-04T10:53:50.978Z,6.40
2017-12-04T10:56:24.507Z,6.40
2017-12-04T10:58:58.058Z,6.30
2017-12-04T11:01:31.758Z,6.40
2017-12-04T11:04:05.270Z,6.40
2017-12-04T11:06:38.961Z,6.40
2017-12-04T11:09:12.673Z,6.40
2017-12-04T11:11:46.422Z,6.40
2017-12-04T11:14:20.017Z,6.40
2017-12-04T11:16:53.632Z,6.40
2017-12-04T11:19:27.937Z,6.50
2017-12-04T11:22:01.514Z,6.40
2017-12-04T11:24:35.021Z,6.40
2017-12-04T11:27:08.970Z,6.50
2017-12-04T11:29:42.557Z,6.50
2017-12-04T11:32:16.146Z,6.50
2017-12-04T11:34:49.715Z,6.50
2017-12-04T11:37:23.345Z,6.50
2017-12-04T11:39:57.158Z,6.40
2017-12-04T11:42:30.861Z,6.40
2017-12-04T11:45:04.458Z,6.40
2017-12-04T11:47:38.866Z,6.40
2017-12-04T11:50:12.388Z,6.40
2017-12-04T11:52:46.086Z,6.40
2017-12-04T11:55:19.566Z,6.40
2017-12-04T11:57:53.282Z,6.40
2017-12-04T12:00:26.864Z,6.40
2017-12-04T12:03:00.491Z,6.40
2017-12-04T12:05:34.801Z,6.40
2017-12-04T12:08:08.247Z,6.40
2017-12-04T12:10:42.732Z,6.50
2017-12-04T12:13:16.406Z,6.40
2017-12-04T12:15:50.682Z,6.60
2017-12-04T12:18:24.550Z,6.60
2017-12-04T12:20:58.098Z,6.50
2017-12-04T12:23:31.750Z,6.60
2017-12-04T12:26:05.305Z,6.50
2017-12-04T12:28:38.954Z,6.50
2017-12-04T12:31:12.658Z,6.60
2017-12-04T12:33:46.158Z,6.60
2017-12-04T12:36:19.714Z,6.60
2017-12-04T12:38:53.314Z,6.60
2017-12-04T12:41:27.053Z,6.60
2017-12-04T12:44:00.657Z,6.60
2017-12-04T12:46:34.362Z,6.70
2017-12-04T12:49:07.834Z,6.70
2017-12-04T12:51:41.370Z,6.70
2017-12-04T12:54:15.072Z,6.70
2017-12-04T12:56:48.761Z,6.70
2017-12-04T12:59:22.246Z,6.70
2017-12-04T13:01:55.871Z,6.80
2017-12-04T13:04:29.519Z,6.70
2017-12-04T13:07:03.169Z,6.70
2017-12-04T13:09:36.741Z,6.70
2017-12-04T13:12:10.598Z,6.80
2017-12-04T13:14:44.995Z,6.80
2017-12-04T13:17:18.905Z,6.70
2017-12-04T13:19:52.514Z,6.80
2017-12-04T13:22:26.116Z,6.70
2017-12-04T13:24:59.590Z,6.70
2017-12-04T13:27:33.102Z,6.80
2017-12-04T13:30:06.905Z,6.80
2017-12-04T13:32:52.422Z,6.80
2017-12-04T13:35:38.077Z,6.80
2017-12-04T13:38:11.569Z,6.90
2017-12-04T13:40:45.373Z,6.90
2017-12-04T13:43:19.802Z,6.90
2017-12-04T13:45:53.411Z,6.90
2017-12-04T13:48:27.058Z,6.90
2017-12-04T13:51:00.606Z,6.80
2017-12-04T13:53:34.297Z,6.80
2017-12-04T13:56:07.909Z,6.90
2017-12-04T13:58:41.594Z,6.80
2017-12-04T14:01:15.251Z,6.80
2017-12-04T14:03:48.690Z,6.80
2017-12-04T14:06:22.306Z,6.80
2017-12-04T14:08:56.014Z,6.80
2017-12-04T14:11:30.406Z,6.80
2017-12-04T14:14:04.122Z,6.80
2017-12-04T14:16:39.679Z,6.70
2017-12-04T14:19:13.379Z,6.70
2017-12-04T14:21:46.950Z,6.70
2017-12-04T14:24:20.467Z,6.70
2017-12-04T14:26:54.124Z,6.70
2017-12-04T14:29:27.781Z,6.80
2017-12-04T14:32:01.486Z,6.70
2017-12-04T14:34:35.178Z,6.80
2017-12-04T14:37:09.002Z,6.70
2017-12-04T14:39:42.602Z,6.70
2017-12-04T14:42:16.206Z,6.80
2017-12-04T14:44:49.966Z,6.80
2017-12-04T14:47:23.505Z,6.80
2017-12-04T14:49:57.306Z,6.80
2017-12-04T14:52:30.858Z,6.80
2017-12-04T14:55:04.410Z,6.80
2017-12-04T14:57:38.023Z,6.80
2017-12-04T15:00:11.450Z,6.70
2017-12-04T15:02:45.211Z,6.70
2017-12-04T15:05:18.813Z,6.80
2017-12-04T15:07:52.409Z,6.80
2017-12-04T15:10:25.989Z,6.80
2017-12-04T15:12:59.562Z,6.70
2017-12-04T15:15:33.309Z,6.70
2017-12-04T15:18:06.914Z,6.70
2017-12-04T15:20:40.522Z,6.80
2017-12-04T15:23:14.847Z,6.80
2017-12-04T15:25:48.434Z,6.80
2017-12-04T15:28:22.019Z,6.80
2017-12-04T15:30:55.523Z,6.80
2017-12-04T15:33:29.864Z,6.80
2017-12-04T15:36:03.558Z,6.80
2017-12-04T15:38:37.366Z,6.80
2017-12-04T15:41:10.970Z,6.80
2017-12-04T15:43:44.877Z,6.80
2017-12-04T15:46:18.618Z,6.80
2017-12-04T15:48:53.694Z,6.70
2017-12-04T15:51:27.309Z,6.70
2017-12-04T15:54:00.793Z,6.80
2017-12-04T15:56:34.380Z,6.80
2017-12-04T15:59:08.023Z,6.80
2017-12-04T16:01:41.609Z,6.80
2017-12-04T16:04:15.214Z,6.80
2017-12-04T16:06:48.766Z,6.80
2017-12-04T16:09:22.366Z,6.90
2017-12-04T16:11:55.873Z,6.80
2017-12-04T16:14:30.440Z,6.90
2017-12-04T16:17:04.025Z,6.90
2017-12-04T16:19:37.650Z,6.90
2017-12-04T16:22:11.183Z,6.80
2017-12-04T16:24:44.839Z,6.80
2017-12-04T16:27:18.850Z,6.80
2017-12-04T16:29:52.562Z,6.90
2017-12-04T16:32:27.084Z,6.80
2017-12-04T16:35:00.680Z,6.80
2017-12-04T16:37:34.182Z,6.80
2017-12-04T16:40:07.778Z,6.80
2017-12-04T16:42:42.158Z,6.90
2017-12-04T16:45:15.915Z,6.90
2017-12-04T16:47:49.541Z,7.00
2017-12-04T16:50:23.278Z,6.90
2017-12-04T16:52:56.849Z,6.90
2017-12-04T16:55:30.528Z,6.80
2017-12-04T16:58:03.997Z,6.90
2017-12-04T17:00:37.520Z,6.90
2017-12-04T17:03:11.214Z,6.90
2017-12-04T17:05:44.814Z,7.00
2017-12-04T17:08:18.314Z,7.00
2017-12-04T17:10:51.969Z,7.00
2017-12-04T17:13:25.502Z,7.10
2017-12-04T17:15:59.215Z,7.10
2017-12-04T17:18:32.913Z,7.10
2017-12-04T17:21:06.482Z,7.10
2017-12-04T17:23:40.232Z,7.10
2017-12-04T17:26:13.758Z,7.00
2017-12-04T17:28:48.103Z,7.10
2017-12-04T17:31:21.738Z,7.10
2017-12-04T17:33:55.342Z,7.10
2017-12-04T17:36:29.862Z,7.10
2017-12-04T17:39:03.469Z,7.00
2017-12-04T17:41:37.030Z,7.10
2017-12-04T17:44:10.638Z,7.20
2017-12-04T17:46:44.267Z,7.10
2017-12-04T17:49:17.834Z,7.20
2017-12-04T17:51:51.365Z,7.10
2017-12-04T17:54:25.170Z,7.20
2017-12-04T17:56:58.742Z,7.20
2017-12-04T17:59:32.373Z,7.10
2017-12-04T18:02:05.974Z,7.20
2017-12-04T18:04:39.578Z,7.20
2017-12-04T18:07:13.074Z,7.20
2017-12-04T18:09:46.587Z,7.20
2017-12-04T18:12:20.169Z,7.30
2017-12-04T18:14:53.875Z,7.20
2017-12-04T18:17:27.429Z,7.20
2017-12-04T18:20:01.058Z,7.20
2017-12-04T18:22:34.638Z,7.20
2017-12-04T18:25:08.386Z,7.20
2017-12-04T18:27:41.983Z,7.30
2017-12-04T18:30:15.543Z,7.20
2017-12-04T18:32:49.191Z,7.20
2017-12-04T18:35:22.742Z,7.20
2017-12-04T18:37:56.286Z,7.20
2017-12-04T18:40:29.991Z,7.20
2017-12-04T18:43:03.797Z,7.20
2017-12-04T18:45:37.498Z,7.20
2017-12-04T18:48:11.082Z,7.20
2017-12-04T18:50:44.664Z,7.20
2017-12-04T18:53:19.044Z,7.10
2017-12-04T18:55:52.726Z,7.10
2017-12-04T18:58:26.324Z,7.10
2017-12-04T19:00:59.886Z,7.10
2017-12-04T19:03:33.475Z,7.20
2017-12-04T19:06:07.026Z,7.20
2017-12-04T19:08:40.626Z,7.20
2017-12-04T19:11:14.198Z,7.20
2017-12-04T19:13:47.891Z,7.20
2017-12-04T19:16:21.422Z,7.10
2017-12-04T19:18:55.038Z,7.20
2017-12-04T19:21:28.474Z,7.20
2017-12-04T19:24:01.924Z,7.10
2017-12-04T19:26:35.364Z,7.10
2017-12-04T19:29:08.805Z,7.10
2017-12-04T19:31:42.327Z,7.10
2017-12-04T19:34:16.593Z,7.10
2017-12-04T19:36:50.115Z,7.10
2017-12-04T19:39:23.618Z,7.10
2017-12-04T19:41:58.026Z,7.10
2017-12-04T19:44:32.242Z,7.20
2017-12-04T19:47:06.454Z,7.10
2017-12-04T19:49:39.934Z,7.10
2017-12-04T19:52:13.574Z,7.20
2017-12-04T19:54:47.027Z,7.20
2017-12-04T19:57:20.531Z,7.10
2017-12-04T19:59:54.042Z,7.10
2017-12-04T20:02:27.562Z,7.10
2017-12-04T20:05:01.757Z,7.20
2017-12-04T20:07:35.241Z,7.20
2017-12-04T20:10:08.698Z,7.20
2017-12-04T20:12:42.253Z,7.20
2017-12-04T20:15:15.687Z,7.10
2017-12-04T20:17:49.966Z,7.10
2017-12-04T20:20:23.497Z,7.10
2017-12-04T20:22:56.938Z,7.20
2017-12-04T20:25:30.383Z,7.10
2017-12-04T20:28:03.841Z,7.20
2017-12-04T20:30:37.283Z,7.10
2017-12-04T20:33:10.727Z,7.00
2017-12-04T20:35:44.181Z,7.10
2017-12-04T20:38:18.487Z,7.10
2017-12-04T20:40:52.686Z,7.00
2017-12-04T20:43:26.287Z,7.00
2017-12-04T20:45:59.880Z,7.00
2017-12-04T20:48:33.397Z,7.00
2017-12-04T20:51:06.919Z,7.00
2017-12-04T20:53:40.358Z,7.00
2017-12-04T20:56:13.990Z,7.10
2017-12-04T20:58:47.516Z,7.00
2017-12-04T21:01:21.790Z,7.10
2017-12-04T21:03:55.294Z,7.00
2017-12-04T21:06:28.739Z,7.10
2017-12-04T21:09:14.102Z,7.00
2017-12-04T21:11:48.379Z,7.00
2017-12-04T21:14:33.686Z,7.00
2017-12-04T21:17:19.040Z,7.00
2017-12-04T21:19:52.536Z,7.00
2017-12-04T21:22:26.060Z,7.10
2017-12-04T21:24:59.574Z,7.10
2017-12-04T21:27:33.029Z,7.10
2017-12-04T21:30:06.541Z,7.10
2017-12-04T21:32:39.986Z,7.10
2017-12-04T21:35:13.666Z,7.10
2017-12-04T21:37:47.088Z,7.20
2017-12-04T21:40:20.770Z,7.20
2017-12-04T21:42:54.393Z,7.20
2017-12-04T21:45:28.085Z,7.20
2017-12-04T21:48:02.548Z,7.20
2017-12-04T21:50:36.051Z,7.20
2017-12-04T21:53:09.690Z,7.20
2017-12-04T21:55:43.981Z,7.10
2017-12-04T21:58:17.499Z,7.10
2017-12-04T22:00:51.143Z,7.00
2017-12-04T22:03:25.557Z,7.00
2017-12-04T22:05:59.226Z,7.00
2017-12-04T22:08:32.718Z,7.00
2017-12-04T22:11:06.321Z,6.90
2017-12-04T22:13:39.897Z,6.90
2017-12-04T22:16:13.558Z,7.00
2017-12-04T22:18:47.842Z,7.00
2017-12-04T22:21:21.414Z,7.00
2017-12-04T22:23:54.978Z,7.00
2017-12-04T22:26:28.553Z,7.00
2017-12-04T22:29:02.206Z,7.00
2017-12-04T22:31:35.955Z,7.00
2017-12-04T22:34:09.550Z,7.00
2017-12-04T22:36:43.254Z,7.00
2017-12-04T22:39:16.861Z,7.00
2017-12-04T22:41:50.454Z,7.00
2017-12-04T22:44:24.059Z,7.10
2017-12-04T22:46:57.527Z,7.10
2017-12-04T22:49:32.024Z,7.10
2017-12-04T22:52:05.678Z,7.20
2017-12-04T22:54:39.237Z,7.20
2017-12-04T22:57:12.883Z,7.20
2017-12-04T22:59:46.426Z,7.20
2017-12-04T23:02:20.762Z,7.30
2017-12-04T23:04:54.486Z,7.20
2017-12-04T23:07:28.301Z,7.30
2017-12-04T23:10:01.903Z,7.40
2017-12-04T23:12:35.426Z,7.40
2017-12-04T23:15:09.006Z,7.40
2017-12-04T23:17:42.590Z,7.40
2017-12-04T23:20:16.273Z,7.40
2017-12-04T23:22:50.026Z,7.40
2017-12-04T23:25:23.810Z,7.30
2017-12-04T23:27:57.518Z,7.30
2017-12-04T23:30:31.406Z,7.40
2017-12-04T23:33:05.035Z,7.40
2017-12-04T23:35:38.843Z,7.50
2017-12-04T23:38:12.546Z,7.50
2017-12-04T23:40:46.041Z,7.50
2017-12-04T23:43:19.722Z,7.40
2017-12-04T23:45:53.346Z,7.50
2017-12-04T23:48:27.353Z,7.40
2017-12-04T23:51:00.954Z,7.50
2017-12-04T23:53:34.657Z,7.50
2017-12-04T23:56:08.239Z,7.50
2017-12-04T23:58:41.814Z,7.50
